createdAt,value
2023-07-03T00:00:36.668Z,93714.97
2023-07-03T00:03:05.393Z,93717.66
2023-07-03T00:05:34.172Z,93709.38
2023-07-03T00:08:02.294Z,93720.34
2023-07-03T00:10:31.906Z,93727.13
2023-07-03T00:13:00.607Z,93730.25
2023-07-03T00:15:29.605Z,93731.31
2023-07-03T00:17:58.736Z,93736.78
2023-07-03T00:20:30.197Z,93737.06
2023-07-03T00:22:58.852Z,93752.38
2023-07-03T00:25:28.110Z,93749.28
2023-07-03T00:27:56.786Z,93743.81
2023-07-03T00:30:25.441Z,93747.72
2023-07-03T00:32:54.212Z,93719.91
2023-07-03T00:35:23.232Z,93732.13
2023-07-03T00:37:52.003Z,93723.03
2023-07-03T00:40:20.740Z,93727.44
2023-07-03T00:42:54.113Z,93718.84
2023-07-03T00:45:22.960Z,93717.03
2023-07-03T00:47:52.190Z,93715.72
2023-07-03T00:50:21.640Z,93723.53
2023-07-03T00:52:55.802Z,93715.22
2023-07-03T00:55:25.258Z,93708.47
2023-07-03T00:57:53.975Z,93708.72
2023-07-03T01:00:28.047Z,93713.13
2023-07-03T01:03:07.034Z,93721.19
2023-07-03T01:05:45.678Z,93704.81
2023-07-03T01:08:14.953Z,93705.59
2023-07-03T01:10:44.433Z,93703.00
2023-07-03T01:13:17.981Z,93701.19
2023-07-03T01:15:47.951Z,93698.84
2023-07-03T01:18:17.833Z,93683.78
2023-07-03T01:21:10.352Z,93687.69
2023-07-03T01:23:56.506Z,93693.91
2023-07-03T01:26:27.938Z,93678.84
2023-07-03T01:29:00.616Z,93690.53
2023-07-03T01:31:32.977Z,93684.81
2023-07-03T01:34:03.764Z,93687.69
2023-07-03T01:36:33.905Z,93690.28
2023-07-03T01:39:05.407Z,93682.22
2023-07-03T01:41:34.417Z,93672.84
2023-07-03T01:44:03.150Z,93671.78
2023-07-03T01:46:31.888Z,93671.25
2023-07-03T01:49:00.654Z,93675.16
2023-07-03T01:51:40.151Z,93674.34
2023-07-03T01:54:17.631Z,93682.41
2023-07-03T01:56:52.151Z,93679.03
2023-07-03T01:59:27.180Z,93680.31
2023-07-03T02:02:07.729Z,93678.47
2023-07-03T02:05:00.322Z,93680.25
2023-07-03T02:07:31.730Z,93673.72
2023-07-03T02:10:01.426Z,93685.69
2023-07-03T02:12:29.970Z,93677.84
2023-07-03T02:15:04.818Z,93675.25
2023-07-03T02:17:33.511Z,93687.72
2023-07-03T02:20:02.108Z,93676.22
2023-07-03T02:22:31.192Z,93672.59
2023-07-03T02:24:59.831Z,93678.84
2023-07-03T02:27:28.413Z,93677.53
2023-07-03T02:29:57.164Z,93684.00
2023-07-03T02:32:25.751Z,93680.38
2023-07-03T02:34:54.373Z,93681.72
2023-07-03T02:37:23.082Z,93678.34
2023-07-03T02:39:51.707Z,93686.66
2023-07-03T02:42:20.310Z,93681.97
2023-07-03T02:44:48.995Z,93689.78
2023-07-03T02:47:17.703Z,93684.63
2023-07-03T02:49:46.471Z,93677.88
2023-07-03T02:52:15.444Z,93684.94
2023-07-03T02:54:43.507Z,93678.66
2023-07-03T02:57:12.039Z,93677.91
2023-07-03T02:59:40.779Z,93667.72
2023-07-03T03:02:09.464Z,93678.66
2023-07-03T03:04:38.242Z,93666.94
2023-07-03T03:07:07.034Z,93679.69
2023-07-03T03:09:35.975Z,93681.00
2023-07-03T03:12:04.631Z,93686.72
2023-07-03T03:14:33.221Z,93677.88
2023-07-03T03:17:02.265Z,93677.88
2023-07-03T03:19:30.946Z,93666.22
2023-07-03T03:21:59.634Z,93672.72
2023-07-03T03:24:29.311Z,93672.72
2023-07-03T03:26:57.954Z,93657.91
2023-07-03T03:29:26.682Z,93670.13
2023-07-03T03:31:55.433Z,93676.13
2023-07-03T03:34:24.049Z,93661.56
2023-07-03T03:36:52.663Z,93660.78
2023-07-03T03:39:21.336Z,93664.69
2023-07-03T03:41:49.979Z,93667.00
2023-07-03T03:44:18.609Z,93667.78
2023-07-03T03:46:47.298Z,93666.47
2023-07-03T03:49:16.018Z,93672.69
2023-07-03T03:51:44.674Z,93669.03
2023-07-03T03:54:13.485Z,93663.59
2023-07-03T03:56:42.078Z,93667.72
2023-07-03T03:59:10.777Z,93657.31
2023-07-03T04:01:38.812Z,93655.78
2023-07-03T04:04:07.585Z,93655.75
2023-07-03T04:06:37.955Z,93655.25
2023-07-03T04:09:07.518Z,93655.50
2023-07-03T04:11:37.131Z,93648.75
2023-07-03T04:14:05.895Z,93649.53
2023-07-03T04:16:35.138Z,93652.66
2023-07-03T04:19:04.536Z,93648.22
2023-07-03T04:21:33.437Z,93647.69
2023-07-03T04:24:02.072Z,93641.22
2023-07-03T04:26:30.557Z,93642.75
2023-07-03T04:28:59.192Z,93638.88
2023-07-03T04:31:28.137Z,93639.91
2023-07-03T04:33:56.760Z,93648.50
2023-07-03T04:36:25.469Z,93648.75
2023-07-03T04:38:59.900Z,93651.09
2023-07-03T04:41:32.012Z,93653.94
2023-07-03T04:44:03.561Z,93654.47
2023-07-03T04:46:32.408Z,93653.91
2023-07-03T04:49:06.914Z,93664.78
2023-07-03T04:51:35.617Z,93664.75
2023-07-03T04:54:05.950Z,93656.91
2023-07-03T04:56:36.373Z,93653.50
2023-07-03T04:59:04.813Z,93664.38
2023-07-03T05:01:33.614Z,93665.72
2023-07-03T05:04:02.380Z,93665.75
2023-07-03T05:06:31.879Z,93671.22
2023-07-03T05:09:00.585Z,93667.25
2023-07-03T05:11:29.326Z,93666.16
2023-07-03T05:13:58.596Z,93659.66
2023-07-03T05:16:27.308Z,93661.50
2023-07-03T05:18:56.017Z,93659.69
2023-07-03T05:21:25.190Z,93659.13
2023-07-03T05:23:53.771Z,93660.94
2023-07-03T05:26:22.346Z,93660.44
2023-07-03T05:28:50.896Z,93662.28
2023-07-03T05:31:23.709Z,93668.81
2023-07-03T05:33:53.125Z,93667.81
2023-07-03T05:36:21.812Z,93660.03
2023-07-03T05:38:50.516Z,93672.47
2023-07-03T05:41:19.093Z,93673.25
2023-07-03T05:43:47.800Z,93679.28
2023-07-03T05:46:17.925Z,93675.91
2023-07-03T05:48:47.319Z,93677.78
2023-07-03T05:51:16.020Z,93673.91
2023-07-03T05:53:44.602Z,93667.41
2023-07-03T05:56:13.162Z,93677.06
2023-07-03T05:58:41.744Z,93665.91
2023-07-03T06:01:10.961Z,93657.38
2023-07-03T06:03:39.755Z,93658.16
2023-07-03T06:06:08.773Z,93651.69
2023-07-03T06:08:37.468Z,93645.19
2023-07-03T06:11:06.361Z,93652.22
2023-07-03T06:13:35.015Z,93648.84
2023-07-03T06:16:03.638Z,93639.47
2023-07-03T06:18:32.277Z,93646.25
2023-07-03T06:21:01.032Z,93657.69
2023-07-03T06:23:29.491Z,93652.75
2023-07-03T06:25:58.383Z,93657.66
2023-07-03T06:28:26.968Z,93664.69
2023-07-03T06:30:55.561Z,93663.66
2023-07-03T06:33:24.297Z,93667.06
2023-07-03T06:35:53.294Z,93662.38
2023-07-03T06:38:22.235Z,93653.03
2023-07-03T06:41:03.390Z,93657.22
2023-07-03T06:43:32.040Z,93657.72
2023-07-03T06:46:01.497Z,93646.56
2023-07-03T06:48:30.106Z,93655.94
2023-07-03T06:51:09.781Z,93654.38
2023-07-03T06:53:38.387Z,93646.06
2023-07-03T06:56:08.400Z,93646.06
2023-07-03T06:58:37.908Z,93630.22
2023-07-03T07:01:11.582Z,93643.22
2023-07-03T07:03:41.340Z,93635.41
2023-07-03T07:06:18.177Z,93633.88
2023-07-03T07:08:47.482Z,93632.81
2023-07-03T07:11:20.258Z,93636.97
2023-07-03T07:13:50.559Z,93639.31
2023-07-03T07:16:27.784Z,93644.50
2023-07-03T07:19:02.981Z,93635.94
2023-07-03T07:21:36.531Z,93637.75
2023-07-03T07:24:15.614Z,93640.09
2023-07-03T07:26:44.692Z,93640.09
2023-07-03T07:29:13.518Z,93630.72
2023-07-03T07:31:42.682Z,93639.03
2023-07-03T07:34:13.201Z,93639.81
2023-07-03T07:36:43.084Z,93635.91
2023-07-03T07:39:11.846Z,93626.56
2023-07-03T07:41:40.456Z,93626.28
2023-07-03T07:44:09.433Z,93617.97
2023-07-03T07:46:39.057Z,93625.78
2023-07-03T07:49:08.027Z,93620.28
2023-07-03T07:51:36.644Z,93621.56
2023-07-03T07:54:05.784Z,93623.34
2023-07-03T07:56:34.655Z,93618.13
2023-07-03T07:59:03.453Z,93623.84
2023-07-03T08:01:32.128Z,93620.72
2023-07-03T08:04:01.100Z,93625.38
2023-07-03T08:06:30.070Z,93614.13
2023-07-03T08:08:58.701Z,93626.88
2023-07-03T08:11:30.931Z,93614.94
2023-07-03T08:13:59.576Z,93614.38
2023-07-03T08:16:28.258Z,93610.75
2023-07-03T08:18:57.834Z,93614.91
2023-07-03T08:21:26.096Z,93600.84
2023-07-03T08:23:54.641Z,93608.63
2023-07-03T08:26:25.776Z,93607.25
2023-07-03T08:28:54.499Z,93607.06
2023-07-03T08:31:23.035Z,93603.38
2023-07-03T08:33:51.800Z,93610.09
2023-07-03T08:38:52.444Z,93602.59
2023-07-03T08:41:21.850Z,93597.44
2023-07-03T08:43:53.969Z,93605.69
2023-07-03T08:46:29.515Z,93597.97
2023-07-03T08:49:03.835Z,93600.06
2023-07-03T08:51:35.802Z,93600.25
2023-07-03T08:54:20.949Z,93607.06
2023-07-03T08:56:51.160Z,93600.06
2023-07-03T08:59:19.887Z,93594.84
2023-07-03T09:02:11.912Z,93596.19
2023-07-03T09:04:44.962Z,93591.69
2023-07-03T09:07:21.488Z,93596.72
2023-07-03T09:10:23.007Z,93587.06
2023-07-03T09:13:09.758Z,93592.53
2023-07-03T09:15:45.947Z,93596.16
2023-07-03T09:18:18.971Z,93596.19
2023-07-03T09:20:48.708Z,93598.28
2023-07-03T09:23:34.584Z,93595.16
2023-07-03T09:26:14.547Z,93596.72
2023-07-03T09:28:45.254Z,93596.47
2023-07-03T09:31:14.879Z,93592.59
2023-07-03T09:33:44.265Z,93588.97
2023-07-03T09:36:37.788Z,93597.03
2023-07-03T09:39:19.754Z,93585.84
2023-07-03T09:41:48.680Z,93585.59
2023-07-03T09:44:23.263Z,93588.44
2023-07-03T09:46:52.720Z,93592.63
2023-07-03T09:49:32.228Z,93592.09
2023-07-03T09:52:03.254Z,93588.72
2023-07-03T09:54:34.322Z,93586.38
2023-07-03T09:57:07.889Z,93588.25
2023-07-03T09:59:38.857Z,93583.56
2023-07-03T10:07:22.453Z,93583.59
2023-07-03T10:12:39.497Z,93585.91
2023-07-03T10:15:13.403Z,93580.75
2023-07-03T10:18:03.319Z,93577.91
2023-07-03T10:20:39.397Z,93573.78
2023-07-03T10:23:12.459Z,93572.22
2023-07-03T10:25:55.884Z,93580.31
2023-07-03T10:28:28.838Z,93576.66
2023-07-03T10:31:05.191Z,93577.72
2023-07-03T10:33:43.208Z,93569.94
2023-07-03T10:36:17.954Z,93572.75
2023-07-03T10:38:57.505Z,93582.91
2023-07-03T10:41:29.097Z,93573.81
2023-07-03T10:44:12.728Z,93574.31
2023-07-03T10:47:09.004Z,93570.69
2023-07-03T10:49:40.052Z,93578.75
2023-07-03T10:52:27.661Z,93572.78
2023-07-03T10:55:03.988Z,93576.94
2023-07-03T10:57:55.248Z,93582.16
2023-07-03T11:00:35.996Z,93581.66
2023-07-03T11:03:21.798Z,93584.22
2023-07-03T11:06:00.491Z,93586.56
2023-07-03T11:08:41.075Z,93589.94
2023-07-03T11:11:17.741Z,93582.91
2023-07-03T11:13:59.645Z,93598.00
2023-07-03T11:16:41.235Z,93594.59
2023-07-03T11:24:46.534Z,93593.81
2023-07-03T11:30:04.872Z,93595.13
2023-07-03T11:32:37.484Z,93598.50
2023-07-03T11:40:38.032Z,93605.75
2023-07-03T11:43:36.168Z,93585.75
2023-07-03T11:46:09.278Z,93607.59
2023-07-03T11:48:40.807Z,93602.13
2023-07-03T11:51:15.507Z,93603.97
2023-07-03T11:54:28.916Z,93609.41
2023-07-03T11:57:02.189Z,93596.44
2023-07-03T11:59:36.070Z,93608.88
2023-07-03T12:02:13.636Z,93606.28
2023-07-03T12:04:49.930Z,93610.47
2023-07-03T12:07:22.209Z,93608.38
2023-07-03T12:09:52.606Z,93601.38
2023-07-03T12:12:22.938Z,93609.16
2023-07-03T12:14:58.989Z,93611.50
2023-07-03T12:17:35.167Z,93612.28
2023-07-03T12:20:21.171Z,93611.78
2023-07-03T12:22:52.207Z,93621.13
2023-07-03T12:25:20.779Z,93615.41
2023-07-03T12:27:51.250Z,93615.16
2023-07-03T12:30:32.569Z,93615.66
2023-07-03T12:33:03.743Z,93614.59
2023-07-03T12:35:45.114Z,93621.63
2023-07-03T12:38:15.992Z,93616.69
2023-07-03T12:40:47.288Z,93623.97
2023-07-03T12:43:21.145Z,93623.22
2023-07-03T12:45:54.464Z,93612.03
2023-07-03T12:48:25.222Z,93617.22
2023-07-03T12:50:59.124Z,93618.25
2023-07-03T12:53:34.963Z,93607.09
2023-07-03T12:56:09.332Z,93616.69
2023-07-03T12:58:38.047Z,93608.38
2023-07-03T13:01:09.368Z,93608.88
2023-07-03T13:03:42.719Z,93610.94
2023-07-03T13:06:22.177Z,93623.16
2023-07-03T13:08:51.644Z,93607.28
2023-07-03T13:11:43.040Z,93621.28
2023-07-03T13:14:31.837Z,93613.47
2023-07-03T13:17:03.491Z,93618.13
2023-07-03T13:19:36.068Z,93616.28
2023-07-03T13:22:12.202Z,93620.44
2023-07-03T13:24:49.558Z,93613.38
2023-07-03T13:27:37.242Z,93610.28
2023-07-03T13:30:40.475Z,93616.03
2023-07-03T13:33:12.754Z,93612.13
2023-07-03T13:35:44.336Z,93613.94
2023-07-03T13:38:21.322Z,93616.03
2023-07-03T13:40:51.997Z,93617.34
2023-07-03T13:43:28.890Z,93619.16
2023-07-03T13:45:58.932Z,93620.22
2023-07-03T13:48:29.174Z,93615.53
2023-07-03T13:50:58.147Z,93621.25
2023-07-03T13:53:28.654Z,93627.25
2023-07-03T13:55:57.402Z,93620.25
2023-07-03T13:58:26.238Z,93626.00
2023-07-03T14:00:54.833Z,93629.66
2023-07-03T14:03:23.617Z,93632.25
2023-07-03T14:05:54.382Z,93632.78
2023-07-03T14:08:23.195Z,93637.19
2023-07-03T14:10:51.641Z,93627.03
2023-07-03T14:13:20.383Z,93624.66
2023-07-03T14:15:49.446Z,93634.25
2023-07-03T14:18:19.983Z,93630.00
2023-07-03T14:20:50.751Z,93635.94
2023-07-03T14:23:19.801Z,93630.22
2023-07-03T14:25:50.002Z,93623.69
2023-07-03T14:28:19.217Z,93627.34
2023-07-03T14:30:49.430Z,93628.63
2023-07-03T14:33:18.806Z,93636.16
2023-07-03T14:35:48.043Z,93635.97
2023-07-03T14:38:17.098Z,93633.94
2023-07-03T14:40:45.800Z,93641.72
2023-07-03T14:43:14.480Z,93640.16
2023-07-03T14:45:43.059Z,93641.50
2023-07-03T14:48:12.865Z,93644.38
2023-07-03T14:50:42.420Z,93636.84
2023-07-03T14:53:11.059Z,93646.72
2023-07-03T14:55:39.820Z,93650.88
2023-07-03T14:58:12.632Z,93645.91
2023-07-03T15:00:41.588Z,93650.31
2023-07-03T15:03:11.100Z,93646.19
2023-07-03T15:05:40.103Z,93645.66
2023-07-03T15:08:08.842Z,93644.16
2023-07-03T15:10:39.227Z,93651.97
2023-07-03T15:13:08.271Z,93657.16
2023-07-03T15:15:36.901Z,93656.91
2023-07-03T15:18:07.227Z,93660.00
2023-07-03T15:20:39.704Z,93660.22
2023-07-03T15:23:08.582Z,93650.59
2023-07-03T15:25:37.709Z,93653.50
2023-07-03T15:28:06.489Z,93658.25
2023-07-03T15:30:35.180Z,93652.84
2023-07-03T15:33:03.926Z,93641.41
2023-07-03T15:35:32.638Z,93653.91
2023-07-03T15:38:01.205Z,93652.59
2023-07-03T15:40:29.785Z,93650.00
2023-07-03T15:42:58.396Z,93670.00
2023-07-03T15:45:27.726Z,93672.06
2023-07-03T15:47:56.347Z,93673.63
2023-07-03T15:50:24.999Z,93679.09
2023-07-03T15:52:58.191Z,93670.78
2023-07-03T15:55:26.325Z,93662.97
2023-07-03T15:57:54.769Z,93665.06
2023-07-03T16:00:23.509Z,93669.69
2023-07-03T16:02:52.158Z,93675.69
2023-07-03T16:05:20.814Z,93674.88
2023-07-03T16:07:49.461Z,93672.25
2023-07-03T16:10:18.278Z,93672.22
2023-07-03T16:12:46.949Z,93672.50
2023-07-03T16:15:15.639Z,93671.19
2023-07-03T16:17:44.216Z,93669.38
2023-07-03T16:20:16.288Z,93676.91
2023-07-03T16:22:47.239Z,93684.97
2023-07-03T16:25:15.890Z,93682.16
2023-07-03T16:27:44.524Z,93691.53
2023-07-03T16:30:13.457Z,93682.44
2023-07-03T16:32:42.164Z,93692.06
2023-07-03T16:35:11.193Z,93693.91
2023-07-03T16:37:40.042Z,93693.94
2023-07-03T16:40:09.217Z,93698.88
2023-07-03T16:42:37.991Z,93695.22
2023-07-03T16:45:07.127Z,93700.16
2023-07-03T16:47:35.817Z,93697.81
2023-07-03T16:50:04.529Z,93689.00
2023-07-03T16:52:32.970Z,93698.88
2023-07-03T16:55:01.596Z,93695.22
2023-07-03T16:57:30.578Z,93699.63
2023-07-03T16:59:59.615Z,93692.84
2023-07-03T17:02:28.232Z,93699.84
2023-07-03T17:04:59.176Z,93702.16
2023-07-03T17:07:27.822Z,93702.34
2023-07-03T17:09:56.439Z,93700.53
2023-07-03T17:12:25.183Z,93699.94
2023-07-03T17:14:53.839Z,93718.09
2023-07-03T17:17:22.502Z,93710.50
2023-07-03T17:19:51.154Z,93706.28
2023-07-03T17:22:21.016Z,93712.09
2023-07-03T17:24:49.720Z,93707.84
2023-07-03T17:27:18.321Z,93708.50
2023-07-03T17:29:46.873Z,93712.56
2023-07-03T17:32:16.481Z,93720.25
2023-07-03T17:34:45.574Z,93716.00
2023-07-03T17:37:14.344Z,93719.97
2023-07-03T17:39:42.765Z,93724.34
2023-07-03T17:42:11.399Z,93720.22
2023-07-03T17:44:40.006Z,93726.16
2023-07-03T17:47:08.727Z,93727.63
2023-07-03T17:49:37.372Z,93726.38
2023-07-03T17:52:06.071Z,93727.69
2023-07-03T17:54:34.644Z,93729.00
2023-07-03T17:57:03.256Z,93732.88
2023-07-03T17:59:31.848Z,93732.16
2023-07-03T18:02:00.518Z,93732.66
2023-07-03T18:04:29.295Z,93739.69
2023-07-03T18:06:57.325Z,93738.69
2023-07-03T18:09:25.761Z,93748.84
2023-07-03T18:11:54.374Z,93755.94
2023-07-03T18:14:22.999Z,93759.34
2023-07-03T18:16:51.736Z,93761.47
2023-07-03T18:19:21.268Z,93762.81
2023-07-03T18:21:50.016Z,93761.31
2023-07-03T18:24:18.422Z,93760.53
2023-07-03T18:26:47.030Z,93758.69
2023-07-03T18:29:16.465Z,93764.38
2023-07-03T18:31:45.276Z,93766.25
2023-07-03T18:34:13.930Z,93753.53
2023-07-03T18:36:42.683Z,93765.81
2023-07-03T18:39:11.373Z,93766.66
2023-07-03T18:41:40.017Z,93775.81
2023-07-03T18:44:08.986Z,93783.91
2023-07-03T18:46:37.863Z,93778.47
2023-07-03T18:49:06.577Z,93782.66
2023-07-03T18:51:34.995Z,93788.16
2023-07-03T18:54:03.540Z,93788.16
2023-07-03T18:56:32.225Z,93789.97
2023-07-03T18:59:00.864Z,93806.09
2023-07-03T19:01:29.544Z,93806.59
2023-07-03T19:03:58.244Z,93798.00
2023-07-03T19:06:26.928Z,93800.03
2023-07-03T19:08:55.693Z,93806.78
2023-07-03T19:11:25.115Z,93804.16
2023-07-03T19:13:53.802Z,93815.59
2023-07-03T19:16:22.456Z,93810.91
2023-07-03T19:18:51.469Z,93817.66
2023-07-03T19:21:20.056Z,93807.75
2023-07-03T19:23:48.700Z,93816.81
2023-07-03T19:26:17.451Z,93808.22
2023-07-03T19:28:51.769Z,93821.78
2023-07-03T19:31:20.612Z,93825.63
2023-07-03T19:33:49.370Z,93828.19
2023-07-03T19:36:22.221Z,93839.94
2023-07-03T19:38:52.109Z,93835.50
2023-07-03T19:41:20.762Z,93840.41
2023-07-03T19:43:49.426Z,93847.72
2023-07-03T19:46:18.102Z,93862.88
2023-07-03T19:48:46.817Z,93861.91
2023-07-03T19:51:15.626Z,93874.47
2023-07-03T19:53:44.228Z,93867.47
2023-07-03T19:56:20.996Z,93864.59
2023-07-03T19:58:50.457Z,93878.13
2023-07-03T20:01:20.295Z,93891.44
2023-07-03T20:03:49.112Z,93894.25
2023-07-03T20:06:23.418Z,93898.97
2023-07-03T20:08:56.196Z,93896.59
2023-07-03T20:11:27.230Z,93909.09
2023-07-03T20:13:55.993Z,93908.84
2023-07-03T20:16:25.337Z,93921.13
2023-07-03T20:18:56.981Z,93918.03
2023-07-03T20:21:25.646Z,93921.41
2023-07-03T20:23:56.796Z,93928.97
2023-07-03T20:26:29.265Z,93933.91
2023-07-03T20:28:58.217Z,93936.47
2023-07-03T20:31:27.073Z,93939.88
2023-07-03T20:33:55.669Z,93935.19
2023-07-03T20:36:24.286Z,93951.06
2023-07-03T20:38:52.888Z,93955.75
2023-07-03T20:41:22.184Z,93960.94
2023-07-03T20:43:50.877Z,93957.84
2023-07-03T20:46:23.316Z,93965.66
2023-07-03T20:48:58.162Z,93972.97
2023-07-03T20:51:34.087Z,93976.09
2023-07-03T20:54:05.686Z,93978.44
2023-07-03T20:56:39.283Z,93991.47
2023-07-03T20:59:08.940Z,93995.38
2023-07-03T21:01:39.549Z,94009.44
2023-07-03T21:04:09.984Z,94008.13
2023-07-03T21:06:40.105Z,94011.00
2023-07-03T21:09:08.973Z,94018.03
2023-07-03T21:11:41.569Z,94016.19
2023-07-03T21:14:12.646Z,94007.34
2023-07-03T21:16:42.519Z,94025.03
2023-07-03T21:19:14.066Z,94023.75
2023-07-03T21:21:43.006Z,94032.31
2023-07-03T21:24:13.919Z,94031.25
2023-07-03T21:26:42.729Z,94036.97
2023-07-03T21:29:11.376Z,94045.81
2023-07-03T21:31:40.648Z,94026.00
2023-07-03T21:34:09.333Z,94042.66
2023-07-03T21:36:38.217Z,94030.38
2023-07-03T21:39:07.513Z,94034.28
2023-07-03T21:41:38.303Z,94041.56
2023-07-03T21:44:18.127Z,94030.31
2023-07-03T21:46:47.072Z,94037.84
2023-07-03T21:49:17.778Z,94043.50
2023-07-03T21:51:46.662Z,94046.09
2023-07-03T21:54:15.402Z,94042.13
2023-07-03T21:56:44.594Z,94043.84
2023-07-03T21:59:14.072Z,94046.03
2023-07-03T22:01:44.292Z,94035.06
2023-07-03T22:04:13.236Z,94032.03
2023-07-03T22:06:42.022Z,94047.19
2023-07-03T22:09:10.938Z,94043.69
2023-07-03T22:11:40.214Z,94049.50
2023-07-03T22:14:08.887Z,94048.31
2023-07-03T22:16:37.958Z,94039.97
2023-07-03T22:19:07.064Z,94049.59
2023-07-03T22:21:36.847Z,94046.34
2023-07-03T22:24:05.663Z,94049.22
2023-07-03T22:26:33.780Z,94048.31
2023-07-03T22:29:02.471Z,94054.59
2023-07-03T22:31:31.285Z,94051.66
2023-07-03T22:33:59.923Z,94065.56
2023-07-03T22:36:28.575Z,94070.97
2023-07-03T22:38:57.269Z,94074.66
2023-07-03T22:41:26.006Z,94076.53
2023-07-03T22:43:54.539Z,94087.88
2023-07-03T22:46:23.337Z,94094.75
2023-07-03T22:48:55.515Z,94086.94
2023-07-03T22:51:24.152Z,94086.16
2023-07-03T22:53:52.733Z,94089.50
2023-07-03T22:56:21.559Z,94088.13
2023-07-03T22:58:50.171Z,94088.78
2023-07-03T23:01:18.881Z,94082.38
2023-07-03T23:03:47.638Z,94087.69
2023-07-03T23:06:15.642Z,94088.09
2023-07-03T23:08:45.602Z,94093.28
2023-07-03T23:11:14.358Z,94097.41
2023-07-03T23:13:43.039Z,94098.91
2023-07-03T23:16:11.778Z,94101.34
2023-07-03T23:18:43.658Z,94108.91
2023-07-03T23:21:18.014Z,94102.91
2023-07-03T23:23:46.878Z,94100.13
2023-07-03T23:26:17.822Z,94097.72
2023-07-03T23:28:47.444Z,94095.38
2023-07-03T23:31:19.230Z,94089.94
2023-07-03T23:33:50.471Z,94093.59
2023-07-03T23:36:25.029Z,94093.31
2023-07-03T23:38:54.594Z,94093.94
2023-07-03T23:41:23.533Z,94088.78
2023-07-03T23:43:52.436Z,94086.28
2023-07-03T23:46:23.498Z,94095.84
2023-07-03T23:48:52.225Z,94098.09
2023-07-03T23:51:20.895Z,94086.13
2023-07-03T23:53:50.063Z,94089.31
2023-07-03T23:56:20.659Z,94083.78
2023-07-03T23:58:50.698Z,94090.50
